createdAt,value
2022-10-17T00:01:10.568Z,17.84
2022-10-17T00:03:39.829Z,17.84
2022-10-17T00:06:08.985Z,17.90
2022-10-17T00:08:37.619Z,17.91
2022-10-17T00:11:08.516Z,17.95
2022-10-17T00:13:36.956Z,17.97
2022-10-17T00:16:07.254Z,17.99
2022-10-17T00:18:35.414Z,18.05
2022-10-17T00:21:03.409Z,17.99
2022-10-17T00:23:31.408Z,18.00
2022-10-17T00:26:00.646Z,18.06
2022-10-17T00:28:28.877Z,18.18
2022-10-17T00:30:58.839Z,18.23
2022-10-17T00:33:28.676Z,18.29
2022-10-17T00:36:05.268Z,18.33
2022-10-17T00:38:33.506Z,18.39
2022-10-17T00:41:01.804Z,18.41
2022-10-17T00:43:30.739Z,18.46
2022-10-17T00:45:58.777Z,18.49
2022-10-17T00:48:28.209Z,18.48
2022-10-17T00:50:56.439Z,18.43
2022-10-17T00:53:24.473Z,18.39
2022-10-17T00:55:55.007Z,18.41
2022-10-17T00:58:23.093Z,18.44
2022-10-17T01:00:51.214Z,18.51
2022-10-17T01:03:19.257Z,18.51
2022-10-17T01:05:48.694Z,18.50
2022-10-17T01:08:16.893Z,18.44
2022-10-17T01:10:54.097Z,18.43
2022-10-17T01:13:26.753Z,18.46
2022-10-17T01:16:05.776Z,18.48
2022-10-17T01:18:54.327Z,18.51
2022-10-17T01:21:49.214Z,18.54
2022-10-17T01:24:48.221Z,18.56
2022-10-17T01:27:57.817Z,18.62
2022-10-17T01:31:04.343Z,18.59
2022-10-17T01:33:40.542Z,18.65
2022-10-17T01:36:14.015Z,18.70
2022-10-17T01:38:48.398Z,18.73
2022-10-17T01:41:23.937Z,18.77
2022-10-17T01:43:56.990Z,18.78
2022-10-17T01:46:31.300Z,18.79
2022-10-17T01:49:02.906Z,18.81
2022-10-17T01:51:37.086Z,18.79
2022-10-17T01:54:12.602Z,18.77
2022-10-17T01:56:42.414Z,18.76
2022-10-17T01:59:14.425Z,18.73
2022-10-17T02:01:46.356Z,18.74
2022-10-17T02:04:14.373Z,18.74
2022-10-17T02:06:44.158Z,18.74
2022-10-17T02:09:21.012Z,18.73
2022-10-17T02:11:59.701Z,18.76
2022-10-17T02:14:39.430Z,18.78
2022-10-17T02:17:19.405Z,18.80
2022-10-17T02:19:58.863Z,18.83
2022-10-17T02:22:39.242Z,18.81
2022-10-17T02:25:15.735Z,18.80
2022-10-17T02:27:51.781Z,18.78
2022-10-17T02:30:30.549Z,18.74
2022-10-17T02:33:04.563Z,18.71
2022-10-17T02:35:38.451Z,18.70
2022-10-17T02:38:09.227Z,18.67
2022-10-17T02:40:39.245Z,18.71
2022-10-17T02:43:08.038Z,18.67
2022-10-17T02:45:38.763Z,18.67
2022-10-17T02:48:13.306Z,18.66
2022-10-17T02:50:50.222Z,18.61
2022-10-17T02:53:26.732Z,18.55
2022-10-17T02:55:59.663Z,18.57
2022-10-17T02:58:34.169Z,18.57
2022-10-17T03:01:03.220Z,18.58
2022-10-17T03:03:33.779Z,18.59
2022-10-17T03:06:03.102Z,18.61
2022-10-17T03:08:31.204Z,18.61
2022-10-17T03:10:59.253Z,18.64
2022-10-17T03:13:29.017Z,18.65
2022-10-17T03:15:58.026Z,18.65
2022-10-17T03:18:26.185Z,18.56
2022-10-17T03:21:00.257Z,18.58
2022-10-17T03:23:28.338Z,18.53
2022-10-17T03:25:56.811Z,18.51
2022-10-17T03:28:25.238Z,18.52
2022-10-17T03:30:53.630Z,18.50
2022-10-17T03:33:21.617Z,18.43
2022-10-17T03:38:24.303Z,18.51
2022-10-17T03:40:56.621Z,18.46
2022-10-17T03:43:24.821Z,18.43
2022-10-17T03:45:52.793Z,18.43
2022-10-17T03:48:20.954Z,18.44
2022-10-17T03:50:49.227Z,18.40
2022-10-17T03:53:17.514Z,18.36
2022-10-17T03:55:46.858Z,18.35
2022-10-17T03:58:14.862Z,18.36
2022-10-17T04:00:42.878Z,18.37
2022-10-17T04:03:16.269Z,18.38
2022-10-17T04:05:45.526Z,18.35
2022-10-17T04:08:13.554Z,18.40
2022-10-17T04:11:20.025Z,18.40
2022-10-17T04:13:53.372Z,18.40
2022-10-17T04:16:22.038Z,18.38
2022-10-17T04:19:00.360Z,18.40
2022-10-17T04:21:32.088Z,18.40
2022-10-17T04:24:05.622Z,18.43
2022-10-17T04:26:54.776Z,18.43
2022-10-17T04:29:26.557Z,18.41
2022-10-17T04:32:02.463Z,18.42
2022-10-17T04:34:40.341Z,18.32
2022-10-17T04:37:08.574Z,18.28
2022-10-17T04:39:37.518Z,18.27
2022-10-17T04:42:07.037Z,18.30
2022-10-17T04:44:35.846Z,18.28
2022-10-17T04:47:03.978Z,18.29
2022-10-17T04:49:32.263Z,18.32
2022-10-17T04:52:08.447Z,18.29
2022-10-17T04:54:43.594Z,18.35
2022-10-17T04:57:15.589Z,18.38
2022-10-17T04:59:51.168Z,18.38
2022-10-17T05:02:47.510Z,18.38
2022-10-17T05:05:16.317Z,18.46
2022-10-17T05:07:46.632Z,18.48
2022-10-17T05:10:19.250Z,18.53
2022-10-17T05:12:52.070Z,18.49
2022-10-17T05:15:23.177Z,18.52
2022-10-17T05:17:56.570Z,18.57
2022-10-17T05:20:26.219Z,18.64
2022-10-17T05:22:54.784Z,18.66
2022-10-17T05:25:24.332Z,18.71
2022-10-17T05:27:54.329Z,18.72
2022-10-17T05:30:22.398Z,18.77
2022-10-17T05:32:55.603Z,18.79
2022-10-17T05:35:24.145Z,18.82
2022-10-17T05:37:53.087Z,18.86
2022-10-17T05:40:22.213Z,18.77
2022-10-17T05:42:54.681Z,18.74
2022-10-17T05:45:23.650Z,18.85
2022-10-17T05:47:51.985Z,18.95
2022-10-17T05:50:21.570Z,18.99
2022-10-17T05:53:04.406Z,19.01
2022-10-17T05:55:36.536Z,19.06
2022-10-17T05:58:06.010Z,19.11
2022-10-17T06:00:38.358Z,19.14
2022-10-17T06:03:06.508Z,19.21
2022-10-17T06:05:36.697Z,19.22
2022-10-17T06:08:04.893Z,19.26
2022-10-17T06:10:36.229Z,19.36
2022-10-17T06:13:06.221Z,19.43
2022-10-17T06:15:34.370Z,19.46
2022-10-17T06:18:06.829Z,19.51
2022-10-17T06:20:34.880Z,19.47
2022-10-17T06:23:03.606Z,19.48
2022-10-17T06:25:46.069Z,19.52
2022-10-17T06:28:15.506Z,19.56
2022-10-17T06:30:43.678Z,19.53
2022-10-17T06:33:12.714Z,19.57
2022-10-17T06:35:40.722Z,19.61
2022-10-17T06:38:08.815Z,19.61
2022-10-17T06:40:38.141Z,19.62
2022-10-17T06:43:06.180Z,19.61
2022-10-17T06:46:11.075Z,19.60
2022-10-17T06:48:42.725Z,19.63
2022-10-17T06:51:29.774Z,19.63
2022-10-17T06:54:00.117Z,19.71
2022-10-17T06:56:48.436Z,19.76
2022-10-17T06:59:36.685Z,19.85
2022-10-17T07:02:13.300Z,19.92
2022-10-17T07:04:41.413Z,19.92
2022-10-17T07:07:09.523Z,19.97
2022-10-17T07:09:37.830Z,20.09
2022-10-17T07:12:08.411Z,20.14
2022-10-17T07:14:36.605Z,20.20
2022-10-17T07:17:05.056Z,20.32
2022-10-17T07:19:35.539Z,20.40
2022-10-17T07:22:05.206Z,20.46
2022-10-17T07:24:34.370Z,20.54
2022-10-17T07:27:15.347Z,20.59
2022-10-17T07:29:43.362Z,20.64
2022-10-17T07:32:18.180Z,20.78
2022-10-17T07:34:47.583Z,20.81
2022-10-17T07:37:16.365Z,20.89
2022-10-17T07:39:50.566Z,20.95
2022-10-17T07:42:18.668Z,21.03
2022-10-17T07:44:47.528Z,21.13
2022-10-17T07:47:15.795Z,21.25
2022-10-17T07:49:45.297Z,21.35
2022-10-17T07:52:15.981Z,21.39
2022-10-17T07:54:44.837Z,21.42
2022-10-17T07:57:12.883Z,21.51
2022-10-17T07:59:41.057Z,21.53
2022-10-17T08:02:22.963Z,21.60
2022-10-17T08:04:51.064Z,21.67
2022-10-17T08:07:24.347Z,21.73
2022-10-17T08:09:56.591Z,21.80
2022-10-17T08:12:26.012Z,21.84
2022-10-17T08:14:54.094Z,21.96
2022-10-17T08:17:22.771Z,22.06
2022-10-17T08:19:50.741Z,22.12
2022-10-17T08:22:20.198Z,22.25
2022-10-17T08:24:48.173Z,22.50
2022-10-17T08:27:21.470Z,22.54
2022-10-17T08:29:52.765Z,22.64
2022-10-17T08:32:21.574Z,22.68
2022-10-17T08:34:49.671Z,22.73
2022-10-17T08:37:17.668Z,22.92
2022-10-17T08:39:47.079Z,23.00
2022-10-17T08:42:32.027Z,23.25
2022-10-17T08:45:09.315Z,23.55
2022-10-17T08:47:40.041Z,23.76
2022-10-17T08:50:13.034Z,23.73
2022-10-17T08:52:43.759Z,23.72
2022-10-17T08:57:50.649Z,23.70
2022-10-17T09:00:20.493Z,23.68
2022-10-17T09:03:03.920Z,23.60
2022-10-17T09:05:42.506Z,23.59
2022-10-17T09:08:21.903Z,23.55
2022-10-17T09:10:59.232Z,23.60
2022-10-17T09:13:45.034Z,23.60
2022-10-17T09:16:33.466Z,23.62
2022-10-17T09:19:08.638Z,23.61
2022-10-17T09:21:44.407Z,23.59
2022-10-17T09:24:19.006Z,23.55
2022-10-17T09:26:48.582Z,23.62
2022-10-17T09:29:21.237Z,23.68
2022-10-17T09:34:32.518Z,23.73
2022-10-17T09:37:01.946Z,23.76
2022-10-17T09:39:31.999Z,23.71
2022-10-17T09:42:02.817Z,23.72
2022-10-17T09:44:33.324Z,23.74
2022-10-17T09:47:15.158Z,23.73
2022-10-17T09:49:45.392Z,23.73
2022-10-17T09:52:17.306Z,23.67
2022-10-17T09:54:48.122Z,23.64
2022-10-17T09:57:19.057Z,23.64
2022-10-17T09:59:48.860Z,23.60
2022-10-17T10:02:22.402Z,23.60
2022-10-17T10:05:10.306Z,23.59
2022-10-17T10:07:40.383Z,23.57
2022-10-17T10:10:27.633Z,23.62
2022-10-17T10:13:17.353Z,23.79
2022-10-17T10:15:47.660Z,23.86
2022-10-17T10:18:32.160Z,23.88
2022-10-17T10:21:10.688Z,23.88
2022-10-17T10:23:40.493Z,23.81
2022-10-17T10:26:22.677Z,23.84
2022-10-17T10:29:01.294Z,23.89
2022-10-17T10:31:40.653Z,23.95
2022-10-17T10:34:20.666Z,23.97
2022-10-17T10:36:59.023Z,23.99
2022-10-17T10:39:46.950Z,23.98
2022-10-17T10:42:23.103Z,24.04
2022-10-17T10:44:53.899Z,24.05
2022-10-17T10:47:26.129Z,24.01
2022-10-17T10:50:09.883Z,23.97
2022-10-17T10:52:43.607Z,23.91
2022-10-17T10:55:25.185Z,24.03
2022-10-17T10:57:57.915Z,23.86
2022-10-17T11:00:30.269Z,23.73
2022-10-17T11:03:04.313Z,23.62
2022-10-17T11:05:42.122Z,23.59
2022-10-17T11:08:21.325Z,23.57
2022-10-17T11:11:01.022Z,23.50
2022-10-17T11:13:35.040Z,23.44
2022-10-17T11:16:22.513Z,23.36
2022-10-17T11:18:54.526Z,23.32
2022-10-17T11:21:33.788Z,23.31
2022-10-17T11:24:09.276Z,23.35
2022-10-17T11:26:45.565Z,23.34
2022-10-17T11:29:14.629Z,23.30
2022-10-17T11:31:51.795Z,23.31
2022-10-17T11:34:26.132Z,23.31
2022-10-17T11:36:57.843Z,23.29
2022-10-17T11:39:31.196Z,23.28
2022-10-17T11:42:06.715Z,23.26
2022-10-17T11:44:37.577Z,23.31
2022-10-17T11:47:14.627Z,23.26
2022-10-17T11:49:49.929Z,23.34
2022-10-17T11:52:51.889Z,23.32
2022-10-17T11:55:21.596Z,23.31
2022-10-17T11:57:58.486Z,23.28
2022-10-17T12:00:39.187Z,23.27
2022-10-17T12:03:27.706Z,23.27
2022-10-17T12:06:00.960Z,23.27
2022-10-17T12:08:34.761Z,23.32
2022-10-17T12:11:07.316Z,23.30
2022-10-17T12:13:53.470Z,23.27
2022-10-17T12:16:46.841Z,23.22
2022-10-17T12:19:38.446Z,23.17
2022-10-17T12:22:22.013Z,23.11
2022-10-17T12:25:01.531Z,23.11
2022-10-17T12:27:42.541Z,23.09
2022-10-17T12:30:25.061Z,23.12
2022-10-17T12:33:22.179Z,23.12
2022-10-17T12:35:53.199Z,23.08
2022-10-17T12:38:24.438Z,23.02
2022-10-17T12:41:00.531Z,23.03
2022-10-17T12:43:57.904Z,22.98
2022-10-17T12:46:51.069Z,22.93
2022-10-17T12:49:51.988Z,22.85
2022-10-17T12:52:49.355Z,22.81
2022-10-17T12:55:18.963Z,22.79
2022-10-17T12:57:58.239Z,22.79
2022-10-17T13:00:34.380Z,22.69
2022-10-17T13:03:11.778Z,22.56
2022-10-17T13:05:43.335Z,22.56
2022-10-17T13:08:19.043Z,22.53
2022-10-17T13:10:52.397Z,22.52
2022-10-17T13:13:23.017Z,22.55
2022-10-17T13:15:53.397Z,22.55
2022-10-17T13:18:24.455Z,22.64
2022-10-17T13:21:01.008Z,22.73
2022-10-17T13:23:33.976Z,22.81
2022-10-17T13:26:07.727Z,22.82
2022-10-17T13:28:39.407Z,22.85
2022-10-17T13:31:08.209Z,22.92
2022-10-17T13:33:39.251Z,22.97
2022-10-17T13:36:10.291Z,22.99
2022-10-17T13:38:41.858Z,22.99
2022-10-17T13:44:04.812Z,23.11
2022-10-17T13:46:39.301Z,23.17
2022-10-17T13:49:14.074Z,23.21
2022-10-17T13:51:45.949Z,23.17
2022-10-17T13:54:41.125Z,23.10
2022-10-17T13:57:21.502Z,23.08
2022-10-17T13:59:51.910Z,23.11
2022-10-17T14:02:22.377Z,23.11
2022-10-17T14:05:18.593Z,23.08
2022-10-17T14:08:11.460Z,23.05
2022-10-17T14:10:42.924Z,22.92
2022-10-17T14:13:22.046Z,22.83
2022-10-17T14:15:51.139Z,22.81
2022-10-17T14:18:22.705Z,22.76
2022-10-17T14:23:42.008Z,22.73
2022-10-17T14:26:15.159Z,22.66
2022-10-17T14:28:45.120Z,22.62
2022-10-17T14:31:30.941Z,22.51
2022-10-17T14:34:00.952Z,22.38
2022-10-17T14:36:35.214Z,22.32
2022-10-17T14:39:08.489Z,22.23
2022-10-17T14:41:44.689Z,22.16
2022-10-17T14:44:21.954Z,22.19
2022-10-17T14:46:54.610Z,22.03
2022-10-17T14:49:34.078Z,21.91
2022-10-17T14:52:27.393Z,21.81
2022-10-17T14:54:55.825Z,21.82
2022-10-17T14:57:28.647Z,21.79
2022-10-17T14:59:57.608Z,21.78
2022-10-17T15:02:26.298Z,21.73
2022-10-17T15:04:54.979Z,21.75
2022-10-17T15:07:23.760Z,21.72
2022-10-17T15:09:53.709Z,21.70
2022-10-17T15:12:24.990Z,21.70
2022-10-17T15:14:55.166Z,21.69
2022-10-17T15:17:25.905Z,21.75
2022-10-17T15:19:54.605Z,21.70
2022-10-17T15:22:22.887Z,21.66
2022-10-17T15:24:50.981Z,21.64
2022-10-17T15:27:21.013Z,21.59
2022-10-17T15:29:49.670Z,21.62
2022-10-17T15:32:19.080Z,21.52
2022-10-17T15:34:47.506Z,21.52
2022-10-17T15:37:20.817Z,21.59
2022-10-17T15:39:53.412Z,21.61
2022-10-17T15:42:23.850Z,21.51
2022-10-17T15:44:51.893Z,21.53
2022-10-17T15:47:25.757Z,21.62
2022-10-17T15:49:54.547Z,21.60
2022-10-17T15:52:23.132Z,21.50
2022-10-17T15:54:51.289Z,21.44
2022-10-17T15:57:21.454Z,21.42
2022-10-17T15:59:50.337Z,21.44
2022-10-17T16:02:20.251Z,21.35
2022-10-17T16:04:50.622Z,21.31
2022-10-17T16:07:19.463Z,21.32
2022-10-17T16:09:47.829Z,21.32
2022-10-17T16:12:19.326Z,21.29
2022-10-17T16:14:47.496Z,21.28
2022-10-17T16:17:16.325Z,21.20
2022-10-17T16:19:45.008Z,21.19
2022-10-17T16:22:36.514Z,21.19
2022-10-17T16:25:10.013Z,21.19
2022-10-17T16:27:38.870Z,21.22
2022-10-17T16:30:08.870Z,21.07
2022-10-17T16:32:36.932Z,20.99
2022-10-17T16:35:05.410Z,20.92
2022-10-17T16:37:35.842Z,20.88
2022-10-17T16:40:04.471Z,20.86
2022-10-17T16:42:32.854Z,20.93
2022-10-17T16:45:01.110Z,20.95
2022-10-17T16:47:29.098Z,20.96
2022-10-17T16:49:57.518Z,20.94
2022-10-17T16:52:25.601Z,20.87
2022-10-17T16:54:54.982Z,20.88
2022-10-17T16:57:23.066Z,20.85
2022-10-17T16:59:51.050Z,20.87
2022-10-17T17:02:21.275Z,20.76
2022-10-17T17:04:49.711Z,20.74
2022-10-17T17:07:18.672Z,20.72
2022-10-17T17:09:46.682Z,20.71
2022-10-17T17:12:16.209Z,20.65
2022-10-17T17:14:44.403Z,20.59
2022-10-17T17:17:19.633Z,20.54
2022-10-17T17:19:58.509Z,20.49
2022-10-17T17:22:26.607Z,20.47
2022-10-17T17:24:54.587Z,20.44
2022-10-17T17:27:25.153Z,20.44
2022-10-17T17:29:53.412Z,20.43
2022-10-17T17:32:21.694Z,20.42
2022-10-17T17:34:49.692Z,20.41
2022-10-17T17:37:17.689Z,20.50
2022-10-17T17:39:45.679Z,20.42
2022-10-17T17:42:13.682Z,20.40
2022-10-17T17:44:43.045Z,20.36
2022-10-17T17:47:11.070Z,20.35
2022-10-17T17:49:39.142Z,20.35
2022-10-17T17:52:07.322Z,20.34
2022-10-17T17:54:38.543Z,20.34
2022-10-17T17:57:08.868Z,20.33
2022-10-17T17:59:37.028Z,20.31
2022-10-17T18:02:06.986Z,20.33
2022-10-17T18:04:35.158Z,20.35
2022-10-17T18:07:03.161Z,20.34
2022-10-17T18:09:31.187Z,20.35
2022-10-17T18:11:59.157Z,20.44
2022-10-17T18:14:27.320Z,20.53
2022-10-17T18:16:55.298Z,20.55
2022-10-17T18:19:24.705Z,20.56
2022-10-17T18:21:52.749Z,20.53
2022-10-17T18:24:20.734Z,20.44
2022-10-17T18:26:48.905Z,20.47
2022-10-17T18:29:17.055Z,20.44
2022-10-17T18:31:45.175Z,20.44
2022-10-17T18:34:13.189Z,20.45
2022-10-17T18:36:42.585Z,20.39
2022-10-17T18:39:10.627Z,20.44
2022-10-17T18:41:38.663Z,20.45
2022-10-17T18:44:06.625Z,20.45
2022-10-17T18:46:40.710Z,20.42
2022-10-17T18:49:10.186Z,20.40
2022-10-17T18:51:38.392Z,20.40
2022-10-17T18:54:12.467Z,20.44
2022-10-17T18:56:40.543Z,20.43
2022-10-17T18:59:08.522Z,20.44
2022-10-17T19:01:36.702Z,20.45
2022-10-17T19:04:05.065Z,20.45
2022-10-17T19:06:33.407Z,20.47
2022-10-17T19:09:03.065Z,20.46
2022-10-17T19:11:33.825Z,20.47
2022-10-17T19:14:03.842Z,20.48
2022-10-17T19:16:34.273Z,20.50
2022-10-17T19:19:04.709Z,20.51
2022-10-17T19:21:33.102Z,20.55
2022-10-17T19:24:03.398Z,20.55
2022-10-17T19:26:35.048Z,20.56
2022-10-17T19:29:03.545Z,20.57
2022-10-17T19:31:33.149Z,20.57
2022-10-17T19:34:01.574Z,20.53
2022-10-17T19:36:33.630Z,20.54
2022-10-17T19:39:02.552Z,20.53
2022-10-17T19:41:32.256Z,20.55
2022-10-17T19:44:01.352Z,20.56
2022-10-17T19:46:30.971Z,20.57
2022-10-17T19:48:59.167Z,20.56
2022-10-17T19:51:29.043Z,20.55
2022-10-17T19:54:00.365Z,20.51
2022-10-17T19:56:30.110Z,20.48
2022-10-17T19:59:00.228Z,20.51
2022-10-17T20:01:36.228Z,20.50
2022-10-17T20:04:04.359Z,20.51
2022-10-17T20:06:34.131Z,20.50
2022-10-17T20:09:02.510Z,20.44
2022-10-17T20:11:30.849Z,20.45
2022-10-17T20:14:01.775Z,20.45
2022-10-17T20:16:31.995Z,20.43
2022-10-17T20:19:05.454Z,20.45
2022-10-17T20:21:35.125Z,20.48
2022-10-17T20:24:04.889Z,20.48
2022-10-17T20:26:38.022Z,20.48
2022-10-17T20:29:10.999Z,20.50
2022-10-17T20:31:40.384Z,20.53
2022-10-17T20:34:08.446Z,20.48
2022-10-17T20:36:37.516Z,20.50
2022-10-17T20:39:07.232Z,20.49
2022-10-17T20:41:35.765Z,20.50
2022-10-17T20:44:04.208Z,20.47
2022-10-17T20:46:38.344Z,20.49
2022-10-17T20:49:11.972Z,20.51
2022-10-17T20:51:40.034Z,20.48
2022-10-17T20:54:08.122Z,20.50
2022-10-17T20:56:37.254Z,20.48
2022-10-17T20:59:08.155Z,20.45
2022-10-17T21:01:37.678Z,20.45
2022-10-17T21:04:33.279Z,20.43
2022-10-17T21:06:54.118Z,20.40
2022-10-17T21:09:22.980Z,20.41
2022-10-17T21:11:55.229Z,20.45
2022-10-17T21:14:24.289Z,20.41
2022-10-17T21:16:53.900Z,20.41
2022-10-17T21:19:22.744Z,20.44
2022-10-17T21:21:51.330Z,20.47
2022-10-17T21:24:20.857Z,20.42
2022-10-17T21:26:55.519Z,20.39
2022-10-17T21:29:24.597Z,20.36
2022-10-17T21:31:54.082Z,20.37
2022-10-17T21:34:24.547Z,20.36
2022-10-17T21:36:53.225Z,20.37
2022-10-17T21:39:21.854Z,20.39
2022-10-17T21:41:49.976Z,20.39
2022-10-17T21:44:19.925Z,20.39
2022-10-17T21:46:48.383Z,20.37
2022-10-17T21:49:19.669Z,20.35
2022-10-17T21:51:48.620Z,20.34
2022-10-17T21:54:17.751Z,20.32
2022-10-17T21:56:46.255Z,20.29
2022-10-17T21:59:14.397Z,20.26
2022-10-17T22:01:44.069Z,20.25
2022-10-17T22:04:16.319Z,20.28
2022-10-17T22:06:47.218Z,20.28
2022-10-17T22:09:21.042Z,20.28
2022-10-17T22:11:52.177Z,20.28
2022-10-17T22:14:22.643Z,20.24
2022-10-17T22:16:51.455Z,20.21
2022-10-17T22:19:21.632Z,20.22
2022-10-17T22:21:51.216Z,20.19
2022-10-17T22:26:49.832Z,20.18
2022-10-17T22:29:18.329Z,20.19
2022-10-17T22:31:46.347Z,20.20
2022-10-17T22:34:16.262Z,20.17
2022-10-17T22:36:44.685Z,20.19
2022-10-17T22:39:14.042Z,20.18
2022-10-17T22:41:42.037Z,20.18
2022-10-17T22:44:10.297Z,20.16
2022-10-17T22:46:38.339Z,20.12
2022-10-17T22:49:06.359Z,20.05
2022-10-17T22:51:34.363Z,20.06
2022-10-17T22:54:02.405Z,20.06
2022-10-17T22:56:31.792Z,20.02
2022-10-17T22:58:59.776Z,19.99
2022-10-17T23:01:27.820Z,19.87
2022-10-17T23:03:55.898Z,19.90
2022-10-17T23:06:24.141Z,19.90
2022-10-17T23:08:52.202Z,19.87
2022-10-17T23:11:20.871Z,19.82
2022-10-17T23:13:50.485Z,19.83
2022-10-17T23:16:18.588Z,19.79
2022-10-17T23:18:46.630Z,19.77
2022-10-17T23:21:14.746Z,19.76
2022-10-17T23:23:42.801Z,19.75
2022-10-17T23:26:12.840Z,19.79
2022-10-17T23:28:41.723Z,19.73
2022-10-17T23:31:13.065Z,19.74
2022-10-17T23:33:41.509Z,19.74
2022-10-17T23:36:10.764Z,19.73
2022-10-17T23:38:39.072Z,19.76
2022-10-17T23:41:07.347Z,19.74
2022-10-17T23:43:35.913Z,19.77
2022-10-17T23:46:04.826Z,19.75
2022-10-17T23:48:34.291Z,19.73
2022-10-17T23:51:02.482Z,19.71
2022-10-17T23:53:30.517Z,19.70
2022-10-17T23:55:58.553Z,19.71
2022-10-17T23:58:26.578Z,19.69
